Terminal Aerodrome Forecast
Issued by NWS

Home | Current Version | Previous Version | Text Only | Print | Product List | Glossary On
Versions: 1 2 3 4 5 6 7 8 9 10 11 12 13 14 15 16 17 18 19 20 21 22 23 24
000
FTUS43 KDLH 210528
TAFHYR
TAF
KHYR 210528Z 2106/2206 00000KT P6SM FEW002
      TEMPO 2106/2110 1 1/2SM BR BKN002
     FM211600 13008KT P6SM SCT250
     FM220000 15008KT P6SM VCSH BKN100=

USA.gov is the U.S. government's official web portal to all federal, state and local government web resources and services.